createdAt,value
2022-12-06T00:01:26.463Z,100143.13
2022-12-06T00:03:59.561Z,100145.88
2022-12-06T00:06:49.336Z,100138.19
2022-12-06T00:09:32.100Z,100140.38
2022-12-06T00:11:59.749Z,100092.75
2022-12-06T00:14:27.259Z,100138.72
2022-12-06T00:16:54.365Z,100139.56
2022-12-06T00:19:23.612Z,100114.94
2022-12-06T00:21:50.769Z,100137.91
2022-12-06T00:24:20.513Z,100114.09
2022-12-06T00:26:49.363Z,100128.34
2022-12-06T00:29:23.863Z,100117.94
2022-12-06T00:31:57.864Z,100110.56
2022-12-06T00:34:25.023Z,100104.81
2022-12-06T00:36:52.062Z,100123.16
2022-12-06T00:39:19.212Z,100121.53
2022-12-06T00:41:46.377Z,100114.41
2022-12-06T00:44:13.422Z,100102.91
2022-12-06T00:46:40.606Z,100092.25
2022-12-06T00:49:09.278Z,100101.53
2022-12-06T00:51:37.937Z,100097.72
2022-12-06T00:54:05.954Z,100102.63
2022-12-06T00:56:35.149Z,100092.22
2022-12-06T00:59:02.109Z,100072.00
2022-12-06T01:01:30.969Z,100088.41
2022-12-06T01:04:01.274Z,100086.75
2022-12-06T01:06:30.535Z,100079.94
2022-12-06T01:08:59.998Z,100078.28
2022-12-06T01:11:28.361Z,100084.03
2022-12-06T01:13:56.687Z,100080.78
2022-12-06T01:16:27.142Z,100071.44
2022-12-06T01:18:59.520Z,100049.56
2022-12-06T01:21:28.004Z,100060.53
2022-12-06T01:23:54.932Z,100072.56
2022-12-06T01:26:27.894Z,100059.16
2022-12-06T01:28:55.077Z,100056.69
2022-12-06T01:31:22.106Z,100051.50
2022-12-06T01:33:49.085Z,100066.53
2022-12-06T01:36:26.005Z,100063.81
2022-12-06T01:38:55.608Z,100058.34
2022-12-06T01:41:25.191Z,100059.44
2022-12-06T01:43:52.923Z,100058.34
2022-12-06T01:46:35.116Z,100063.53
2022-12-06T01:49:14.100Z,100053.94
2022-12-06T01:51:49.607Z,100053.13
2022-12-06T01:54:19.846Z,100053.13
2022-12-06T01:56:49.119Z,100031.22
2022-12-06T01:59:16.956Z,100049.56
2022-12-06T02:01:44.377Z,100024.66
2022-12-06T02:04:11.417Z,100052.84
2022-12-06T02:06:40.540Z,100049.00
2022-12-06T02:09:09.662Z,100046.81
2022-12-06T02:11:37.234Z,100038.88
2022-12-06T02:14:07.729Z,100037.50
2022-12-06T02:17:11.073Z,100031.47
2022-12-06T02:19:44.169Z,100040.78
2022-12-06T02:22:33.330Z,100042.41
2022-12-06T02:25:00.153Z,100044.59
2022-12-06T02:27:48.346Z,100042.13
2022-12-06T02:30:51.693Z,100042.13
2022-12-06T02:33:36.539Z,100020.78
2022-12-06T02:36:26.687Z,100035.25
2022-12-06T02:39:12.943Z,100042.94
2022-12-06T02:41:45.745Z,100041.59
2022-12-06T02:44:23.706Z,100035.56
2022-12-06T02:46:51.583Z,100043.22
2022-12-06T02:49:19.889Z,100032.53
2022-12-06T02:51:48.729Z,100044.03
2022-12-06T02:54:17.728Z,100036.94
2022-12-06T02:56:44.562Z,100039.13
2022-12-06T02:59:12.032Z,100043.47
2022-12-06T03:01:45.550Z,100041.56
2022-12-06T03:04:31.760Z,100041.03
2022-12-06T03:07:17.541Z,100043.72
2022-12-06T03:09:56.426Z,100051.94
2022-12-06T03:12:47.739Z,100047.59
2022-12-06T03:15:36.177Z,100037.47
2022-12-06T03:18:24.322Z,100050.88
2022-12-06T03:20:56.521Z,100045.41
2022-12-06T03:23:35.880Z,100029.53
2022-12-06T03:26:05.537Z,100028.19
2022-12-06T03:28:36.786Z,100042.97
2022-12-06T03:31:10.923Z,100050.91
2022-12-06T03:33:42.519Z,100035.88
2022-12-06T03:36:13.458Z,100031.22
2022-12-06T03:38:58.949Z,100004.38
2022-12-06T03:41:33.276Z,100040.53
2022-12-06T03:44:00.355Z,100035.88
2022-12-06T03:46:32.905Z,100014.78
2022-12-06T03:49:05.661Z,100015.63
2022-12-06T03:51:37.737Z,100013.44
2022-12-06T03:54:06.945Z,99992.63
2022-12-06T03:56:36.956Z,100005.75
2022-12-06T03:59:08.800Z,100010.66
2022-12-06T04:01:36.517Z,100019.44
2022-12-06T04:04:03.827Z,100004.38
2022-12-06T04:06:30.914Z,100014.22
2022-12-06T04:09:17.844Z,99996.44
2022-12-06T04:11:44.957Z,100002.75
2022-12-06T04:14:11.873Z,100012.59
2022-12-06T04:16:57.176Z,100027.63
2022-12-06T04:19:24.446Z,100022.72
2022-12-06T04:22:10.088Z,100019.44
2022-12-06T04:24:36.894Z,100003.56
2022-12-06T04:27:22.406Z,100022.16
2022-12-06T04:30:07.914Z,99997.00
2022-12-06T04:32:53.253Z,100007.94
2022-12-06T04:35:38.833Z,100012.03
2022-12-06T04:38:24.429Z,100013.97
2022-12-06T04:40:51.396Z,100018.34
2022-12-06T04:43:36.601Z,100004.13
2022-12-06T04:46:03.708Z,100010.44
2022-12-06T04:48:30.635Z,100009.91
2022-12-06T04:50:57.597Z,100007.44
2022-12-06T04:53:24.707Z,99992.94
2022-12-06T04:55:52.886Z,100006.59
2022-12-06T04:58:19.869Z,100017.28
2022-12-06T05:00:46.798Z,100004.13
2022-12-06T05:03:15.394Z,100003.06
2022-12-06T05:05:42.836Z,99999.25
2022-12-06T05:08:10.397Z,100007.44
2022-12-06T05:10:37.472Z,100004.16
2022-12-06T05:13:05.085Z,100012.38
2022-12-06T05:15:34.462Z,100000.88
2022-12-06T05:18:01.545Z,99998.69
2022-12-06T05:20:31.285Z,99996.78
2022-12-06T05:22:58.369Z,99992.41
2022-12-06T05:25:25.447Z,99987.22
2022-12-06T05:27:52.612Z,99997.34
2022-12-06T05:30:19.621Z,99986.97
2022-12-06T05:32:55.443Z,99951.94
2022-12-06T05:35:24.234Z,99992.41
2022-12-06T05:37:51.545Z,99996.78
2022-12-06T05:40:18.601Z,100003.63
2022-12-06T05:42:45.848Z,99969.16
2022-12-06T05:45:13.193Z,99983.91
2022-12-06T05:47:40.025Z,100006.34
2022-12-06T05:50:11.460Z,100001.16
2022-12-06T05:52:38.553Z,99995.41
2022-12-06T05:55:06.029Z,99989.38
2022-12-06T05:57:33.010Z,99999.50
2022-12-06T06:00:00.159Z,100003.59
2022-12-06T06:02:28.469Z,100006.34
2022-12-06T06:04:55.814Z,100003.59
2022-12-06T06:07:22.918Z,100001.13
2022-12-06T06:09:49.782Z,99999.22
2022-12-06T06:12:16.897Z,100016.19
2022-12-06T06:14:43.950Z,100014.81
2022-12-06T06:17:11.207Z,100011.81
2022-12-06T06:19:38.270Z,100006.34
2022-12-06T06:22:05.378Z,100015.91
2022-12-06T06:24:37.496Z,99934.94
2022-12-06T06:27:05.428Z,100011.84
2022-12-06T06:29:32.497Z,100017.03
2022-12-06T06:32:01.006Z,100006.91
2022-12-06T06:34:28.114Z,100012.94
2022-12-06T06:36:55.072Z,100017.03
2022-12-06T06:39:22.290Z,99998.72
2022-12-06T06:41:49.278Z,100010.22
2022-12-06T06:44:19.533Z,100008.84
2022-12-06T06:46:46.838Z,100008.28
2022-12-06T06:49:14.064Z,100012.38
2022-12-06T06:51:41.446Z,100001.44
2022-12-06T06:54:08.875Z,100009.09
2022-12-06T06:56:35.939Z,100008.28
2022-12-06T06:59:03.160Z,99990.50
2022-12-06T07:01:30.223Z,100001.72
2022-12-06T07:03:57.596Z,99999.53
2022-12-06T07:06:24.667Z,99983.09
2022-12-06T07:08:51.850Z,100004.44
2022-12-06T07:11:18.707Z,100004.72
2022-12-06T07:13:51.233Z,99987.75
2022-12-06T07:16:20.205Z,99988.84
2022-12-06T07:18:48.053Z,99974.63
2022-12-06T07:21:16.334Z,99992.94
2022-12-06T07:23:43.470Z,99995.97
2022-12-06T07:26:13.484Z,99992.38
2022-12-06T07:28:42.961Z,99979.78
2022-12-06T07:31:16.907Z,99967.47
2022-12-06T07:33:45.168Z,99975.69
2022-12-06T07:36:14.298Z,99982.75
2022-12-06T07:38:43.485Z,99978.34
2022-12-06T07:41:32.356Z,99959.19
2022-12-06T07:44:20.341Z,99980.19
2022-12-06T07:46:48.461Z,99956.41
2022-12-06T07:49:19.881Z,99972.81
2022-12-06T07:51:47.944Z,99967.59
2022-12-06T07:54:16.438Z,99977.41
2022-12-06T07:56:44.429Z,99976.53
2022-12-06T07:59:15.626Z,99974.63
2022-12-06T08:01:43.549Z,99974.66
2022-12-06T08:04:11.432Z,99963.09
2022-12-06T08:06:38.866Z,99955.09
2022-12-06T08:09:07.484Z,99953.72
2022-12-06T08:11:35.005Z,99949.84
2022-12-06T08:14:02.138Z,99953.03
2022-12-06T08:16:29.658Z,99930.53
2022-12-06T08:18:58.048Z,99941.88
2022-12-06T08:21:27.179Z,99935.78
2022-12-06T08:23:55.444Z,99939.72
2022-12-06T08:26:28.677Z,99934.03
2022-12-06T08:29:00.211Z,99935.75
2022-12-06T08:31:28.274Z,99938.72
2022-12-06T08:33:55.832Z,99931.53
2022-12-06T08:36:24.427Z,99924.66
2022-12-06T08:38:53.167Z,99934.22
2022-12-06T08:41:39.442Z,99936.19
2022-12-06T08:44:07.365Z,99934.84
2022-12-06T08:46:35.384Z,99932.19
2022-12-06T08:49:02.875Z,99899.16
2022-12-06T08:51:31.462Z,99916.09
2022-12-06T08:53:58.621Z,99912.13
2022-12-06T08:56:26.690Z,99909.38
2022-12-06T08:58:55.301Z,99913.22
2022-12-06T09:01:31.220Z,99911.88
2022-12-06T09:04:06.695Z,99909.75
2022-12-06T09:06:34.529Z,99905.59
2022-12-06T09:09:04.674Z,99901.16
2022-12-06T09:11:31.877Z,99891.34
2022-12-06T09:13:58.893Z,99895.44
2022-12-06T09:16:26.599Z,99888.44
2022-12-06T09:18:54.276Z,99880.84
2022-12-06T09:21:24.086Z,99867.56
2022-12-06T09:23:54.572Z,99858.78
2022-12-06T09:26:22.279Z,99843.53
2022-12-06T09:28:52.624Z,99828.63
2022-12-06T09:31:20.005Z,99834.56
2022-12-06T09:33:47.782Z,99835.72
2022-12-06T09:36:27.121Z,99811.28
2022-12-06T09:39:00.085Z,99831.28
2022-12-06T09:41:46.307Z,99842.03
2022-12-06T09:44:42.520Z,99845.47
2022-12-06T09:47:22.684Z,99834.53
2022-12-06T09:50:40.971Z,99833.66
2022-12-06T09:53:32.974Z,99826.13
2022-12-06T09:56:40.973Z,99815.44
2022-12-06T09:59:59.379Z,99817.00
2022-12-06T10:02:44.239Z,99817.53
2022-12-06T10:05:28.363Z,99809.06
2022-12-06T10:08:09.545Z,99798.28
2022-12-06T10:10:42.735Z,99795.63
2022-12-06T10:13:24.894Z,99784.91
2022-12-06T10:16:17.058Z,99777.19
2022-12-06T10:18:49.752Z,99781.78
2022-12-06T10:21:53.284Z,99774.16
2022-12-06T10:24:57.334Z,99765.03
2022-12-06T10:27:49.530Z,99761.53
2022-12-06T10:30:17.732Z,99761.75
2022-12-06T10:32:51.164Z,99761.53
2022-12-06T10:35:37.401Z,99753.84
2022-12-06T10:41:39.961Z,99749.69
2022-12-06T10:44:25.624Z,99738.50
2022-12-06T10:47:21.972Z,99745.69
2022-12-06T10:49:51.920Z,99740.19
2022-12-06T10:52:25.061Z,99735.94
2022-12-06T10:55:05.636Z,99730.22
2022-12-06T10:57:46.929Z,99719.41
2022-12-06T11:00:21.170Z,99717.38
2022-12-06T11:03:05.169Z,99708.41
2022-12-06T11:05:44.560Z,99714.03
2022-12-06T11:08:20.027Z,99700.16
2022-12-06T11:10:49.240Z,99696.38
2022-12-06T11:13:19.626Z,99696.56
2022-12-06T11:16:00.636Z,99698.22
2022-12-06T11:18:29.857Z,99692.69
2022-12-06T11:21:01.176Z,99699.75
2022-12-06T11:23:45.885Z,99691.38
2022-12-06T11:26:18.291Z,99694.84
2022-12-06T11:29:05.280Z,99682.69
2022-12-06T11:31:50.084Z,99680.69
2022-12-06T11:34:32.148Z,99672.19
2022-12-06T11:37:07.149Z,99678.56
2022-12-06T11:39:35.302Z,99680.03
2022-12-06T11:42:05.356Z,99662.50
2022-12-06T11:44:49.742Z,99681.53
2022-12-06T11:47:22.410Z,99678.28
2022-12-06T11:49:53.639Z,99667.75
2022-12-06T11:52:37.977Z,99666.38
2022-12-06T11:55:17.955Z,99655.28
2022-12-06T11:58:01.275Z,99652.00
2022-12-06T12:00:31.483Z,99650.84
2022-12-06T12:02:59.045Z,99639.06
2022-12-06T12:05:30.678Z,99652.56
2022-12-06T12:08:16.663Z,99656.00
2022-12-06T12:10:47.545Z,99637.56
2022-12-06T12:13:38.615Z,99635.78
2022-12-06T12:16:21.117Z,99627.03
2022-12-06T12:19:05.983Z,99614.16
2022-12-06T12:21:39.991Z,99641.47
2022-12-06T12:25:03.145Z,99636.41
2022-12-06T12:27:39.614Z,99632.16
2022-12-06T12:30:21.617Z,99619.28
2022-12-06T12:32:51.937Z,99621.19
2022-12-06T12:35:22.769Z,99624.69
2022-12-06T12:37:52.994Z,99616.34
2022-12-06T12:40:30.630Z,99619.84
2022-12-06T12:43:05.565Z,99619.72
2022-12-06T12:45:33.271Z,99610.81
2022-12-06T12:48:02.563Z,99620.00
2022-12-06T12:50:32.787Z,99614.75
2022-12-06T12:53:00.819Z,99612.84
2022-12-06T12:55:31.038Z,99624.34
2022-12-06T12:58:00.695Z,99617.97
2022-12-06T13:00:46.255Z,99624.25
2022-12-06T13:03:49.696Z,99616.28
2022-12-06T13:06:07.436Z,99610.53
2022-12-06T13:08:38.359Z,99601.91
2022-12-06T13:11:06.581Z,99610.50
2022-12-06T13:13:55.743Z,99618.56
2022-12-06T13:16:34.806Z,99600.16
2022-12-06T13:19:02.511Z,99604.19
2022-12-06T13:21:36.303Z,99610.94
2022-12-06T13:24:18.421Z,99594.06
2022-12-06T13:26:53.880Z,99601.84
2022-12-06T13:29:38.771Z,99597.16
2022-12-06T13:32:22.722Z,99597.78
2022-12-06T13:34:55.179Z,99602.00
2022-12-06T13:37:52.268Z,99600.78
2022-12-06T13:40:46.026Z,99590.91
2022-12-06T13:43:25.985Z,99610.78
2022-12-06T13:46:24.477Z,99580.47
2022-12-06T13:49:00.662Z,99607.25
2022-12-06T13:51:34.752Z,99600.75
2022-12-06T13:54:04.801Z,99599.22
2022-12-06T13:56:34.801Z,99606.97
2022-12-06T13:59:04.779Z,99601.03
2022-12-06T14:01:49.661Z,99603.25
2022-12-06T14:07:00.322Z,99607.81
2022-12-06T14:09:37.542Z,99582.03
2022-12-06T14:12:10.379Z,99594.22
2022-12-06T14:14:59.809Z,99595.16
2022-12-06T14:18:03.556Z,99606.25
2022-12-06T14:20:48.793Z,99603.00
2022-12-06T14:23:26.425Z,99600.06
2022-12-06T14:26:15.316Z,99595.56
2022-12-06T14:28:43.470Z,99586.28
2022-12-06T14:31:43.939Z,99597.72
2022-12-06T14:34:29.105Z,99591.28
2022-12-06T14:40:16.525Z,99596.88
2022-12-06T14:43:02.787Z,99567.53
2022-12-06T14:45:35.018Z,99584.06
2022-12-06T14:48:04.434Z,99584.66
2022-12-06T14:50:41.239Z,99586.28
2022-12-06T14:53:27.872Z,99577.16
2022-12-06T14:56:29.985Z,99581.09
2022-12-06T14:58:59.620Z,99565.09
2022-12-06T15:01:32.257Z,99582.63
2022-12-06T15:04:06.359Z,99562.78
2022-12-06T15:06:36.140Z,99539.88
2022-12-06T15:09:03.437Z,99586.59
2022-12-06T15:12:00.276Z,99582.72
2022-12-06T15:14:48.097Z,99569.38
2022-12-06T15:17:22.526Z,99586.81
2022-12-06T15:19:53.696Z,99573.06
2022-12-06T15:22:29.291Z,99557.06
2022-12-06T15:25:00.420Z,99571.94
2022-12-06T15:27:28.186Z,99578.19
2022-12-06T15:29:55.914Z,99581.44
2022-12-06T15:32:26.019Z,99586.13
2022-12-06T15:34:56.175Z,99580.63
2022-12-06T15:37:38.819Z,99567.56
2022-12-06T15:40:07.681Z,99578.47
2022-12-06T15:42:36.275Z,99586.50
2022-12-06T15:45:03.710Z,99576.72
2022-12-06T15:47:31.673Z,99580.88
2022-12-06T15:49:59.040Z,99576.09
2022-12-06T15:52:27.799Z,99574.41
2022-12-06T15:54:54.928Z,99576.41
2022-12-06T15:57:22.108Z,99585.97
2022-12-06T15:59:49.872Z,99581.59
2022-12-06T16:02:19.432Z,99592.44
2022-12-06T16:04:50.584Z,99583.84
2022-12-06T16:07:19.406Z,99580.06
2022-12-06T16:09:48.026Z,99578.13
2022-12-06T16:12:15.532Z,99564.69
2022-12-06T16:14:42.796Z,99569.28
2022-12-06T16:17:09.987Z,99585.66
2022-12-06T16:19:55.857Z,99572.31
2022-12-06T16:22:43.322Z,99572.16
2022-12-06T16:25:10.765Z,99588.13
2022-12-06T16:27:55.704Z,99590.47
2022-12-06T16:30:58.771Z,99592.75
2022-12-06T16:33:45.683Z,99594.47
2022-12-06T16:36:51.894Z,99586.31
2022-12-06T16:39:24.011Z,99592.38
2022-12-06T16:41:50.990Z,99598.31
2022-12-06T16:44:17.859Z,99600.06
2022-12-06T16:46:46.795Z,99592.19
2022-12-06T16:52:05.727Z,99599.19
2022-12-06T16:54:32.928Z,99597.34
2022-12-06T16:56:59.961Z,99585.44
2022-12-06T16:59:27.215Z,99593.38
2022-12-06T17:01:55.648Z,99585.44
2022-12-06T17:04:23.370Z,99586.38
2022-12-06T17:06:50.724Z,99591.44
2022-12-06T17:09:17.671Z,99545.25
2022-12-06T17:12:02.716Z,99562.63
2022-12-06T17:14:30.154Z,99571.94
2022-12-06T17:17:03.551Z,99552.19
2022-12-06T17:19:32.373Z,99572.78
2022-12-06T17:22:04.285Z,99568.50
2022-12-06T17:24:31.324Z,99585.19
2022-12-06T17:26:59.088Z,99578.44
2022-12-06T17:29:26.357Z,99571.91
2022-12-06T17:32:02.732Z,99567.88
2022-12-06T17:34:29.800Z,99550.19
2022-12-06T17:37:03.285Z,99562.75
2022-12-06T17:39:30.274Z,99558.47
2022-12-06T17:42:16.006Z,99568.81
2022-12-06T17:44:43.099Z,99563.34
2022-12-06T17:47:10.114Z,99564.97
2022-12-06T17:49:38.505Z,99562.31
2022-12-06T17:52:06.072Z,99560.97
2022-12-06T17:54:34.788Z,99560.75
2022-12-06T17:57:05.984Z,99556.38
2022-12-06T17:59:39.937Z,99561.31
2022-12-06T18:05:24.734Z,99537.59
2022-12-06T18:07:51.861Z,99546.09
2022-12-06T18:10:22.245Z,99546.13
2022-12-06T18:13:01.205Z,99558.13
2022-12-06T18:15:38.448Z,99535.50
2022-12-06T18:18:15.357Z,99536.88
2022-12-06T18:20:44.015Z,99530.09
2022-12-06T18:23:11.050Z,99535.56
2022-12-06T18:25:41.425Z,99542.69
2022-12-06T18:28:09.015Z,99552.22
2022-12-06T18:30:42.530Z,99535.88
2022-12-06T18:33:16.234Z,99531.56
2022-12-06T18:35:51.284Z,99536.16
2022-12-06T18:38:28.402Z,99531.56
2022-12-06T18:41:22.654Z,99530.47
2022-12-06T18:43:49.815Z,99525.56
2022-12-06T18:46:27.993Z,99516.84
2022-12-06T18:49:00.170Z,99531.03
2022-12-06T18:51:31.002Z,99527.22
2022-12-06T18:53:59.518Z,99516.03
2022-12-06T18:56:27.792Z,99514.66
2022-12-06T18:58:55.022Z,99505.66
2022-12-06T19:01:25.066Z,99507.28
2022-12-06T19:03:52.858Z,99511.41
2022-12-06T19:06:25.379Z,99509.78
2022-12-06T19:12:03.366Z,99501.03
2022-12-06T19:14:30.539Z,99499.41
2022-12-06T19:16:58.347Z,99488.75
2022-12-06T19:19:26.720Z,99507.59
2022-12-06T19:21:54.704Z,99491.78
2022-12-06T19:24:24.701Z,99496.69
2022-12-06T19:26:59.312Z,99498.84
2022-12-06T19:29:28.119Z,99492.84
2022-12-06T19:31:55.137Z,99483.84
2022-12-06T19:34:25.070Z,99483.28
2022-12-06T19:36:53.625Z,99479.75
2022-12-06T19:39:21.375Z,99479.75
2022-12-06T19:42:06.852Z,99470.75
2022-12-06T19:44:34.588Z,99480.03
2022-12-06T19:47:02.787Z,99479.22
2022-12-06T19:49:33.452Z,99465.88
2022-12-06T19:52:04.226Z,99476.25
2022-12-06T19:54:33.111Z,99474.91
2022-12-06T19:57:01.397Z,99475.19
2022-12-06T19:59:34.461Z,99486.38
2022-12-06T20:02:03.442Z,99478.50
2022-12-06T20:04:35.987Z,99474.94
2022-12-06T20:07:05.002Z,99482.31
2022-12-06T20:09:33.153Z,99467.09
2022-12-06T20:12:01.808Z,99470.63
2022-12-06T20:14:33.096Z,99475.50
2022-12-06T20:17:00.693Z,99467.91
2022-12-06T20:19:27.760Z,99468.75
2022-12-06T20:21:55.300Z,99461.38
2022-12-06T20:24:23.031Z,99459.75
2022-12-06T20:26:52.354Z,99462.22
2022-12-06T20:29:20.477Z,99464.66
2022-12-06T20:32:11.625Z,99463.56
2022-12-06T20:34:40.887Z,99434.97
2022-12-06T20:37:08.297Z,99461.13
2022-12-06T20:39:36.271Z,99461.94
2022-12-06T20:42:05.865Z,99449.41
2022-12-06T20:44:34.283Z,99456.75
2022-12-06T20:47:01.503Z,99452.94
2022-12-06T20:49:28.566Z,99456.75
2022-12-06T20:51:56.703Z,99452.41
2022-12-06T20:54:23.712Z,99439.56
2022-12-06T20:56:53.674Z,99440.94
2022-12-06T21:00:07.118Z,99449.94
2022-12-06T21:02:35.188Z,99436.59
2022-12-06T21:05:02.185Z,99442.56
2022-12-06T21:07:29.033Z,99424.31
2022-12-06T21:09:56.268Z,99430.31
2022-12-06T21:12:23.234Z,99435.19
2022-12-06T21:14:50.364Z,99430.84
2022-12-06T21:17:17.329Z,99423.78
2022-12-06T21:19:44.511Z,99430.31
2022-12-06T21:22:11.781Z,99407.44
2022-12-06T21:24:39.614Z,99416.97
2022-12-06T21:27:06.586Z,99415.06
2022-12-06T21:29:33.717Z,99418.88
2022-12-06T21:32:01.700Z,99423.78
2022-12-06T21:34:29.139Z,99423.78
2022-12-06T21:36:56.158Z,99427.06
2022-12-06T21:39:23.125Z,99417.25
2022-12-06T21:41:50.600Z,99404.16
2022-12-06T21:44:17.645Z,99392.72
2022-12-06T21:46:44.829Z,99395.44
2022-12-06T21:49:13.123Z,99410.69
2022-12-06T21:51:40.341Z,99426.50
2022-12-06T21:54:07.454Z,99416.97
2022-12-06T21:56:35.124Z,99415.06
2022-12-06T21:59:02.642Z,99401.44
2022-12-06T22:01:31.143Z,99396.53
2022-12-06T22:04:01.182Z,99396.25
2022-12-06T22:06:28.357Z,99394.91
2022-12-06T22:08:58.384Z,99385.63
2022-12-06T22:11:25.380Z,99375.28
2022-12-06T22:13:52.423Z,99397.63
2022-12-06T22:16:19.570Z,99404.16
2022-12-06T22:18:46.989Z,99406.34
2022-12-06T22:21:19.401Z,99405.25
2022-12-06T22:23:47.174Z,99403.06
2022-12-06T22:26:17.724Z,99401.97
2022-12-06T22:28:44.718Z,99378.00
2022-12-06T22:31:13.146Z,99391.59
2022-12-06T22:33:40.890Z,99384.25
2022-12-06T22:36:08.778Z,99385.06
2022-12-06T22:38:35.940Z,99391.06
2022-12-06T22:41:03.254Z,99393.53
2022-12-06T22:43:30.787Z,99395.41
2022-12-06T22:46:09.708Z,99399.22
2022-12-06T22:48:37.216Z,99385.59
2022-12-06T22:51:24.783Z,99394.59
2022-12-06T22:53:57.591Z,99389.44
2022-12-06T22:56:26.004Z,99399.78
2022-12-06T22:58:57.977Z,99392.13
2022-12-06T23:01:27.569Z,99389.16
2022-12-06T23:03:59.332Z,99378.50
2022-12-06T23:06:26.681Z,99376.06
2022-12-06T23:08:58.058Z,99376.06
2022-12-06T23:11:34.025Z,99377.16
2022-12-06T23:14:03.285Z,99383.69
2022-12-06T23:16:31.314Z,99394.88
2022-12-06T23:19:00.395Z,99387.50
2022-12-06T23:21:33.149Z,99386.16
2022-12-06T23:24:03.137Z,99398.13
2022-12-06T23:26:33.990Z,99389.41
2022-12-06T23:29:01.720Z,99396.78
2022-12-06T23:31:31.487Z,99393.78
2022-12-06T23:34:01.933Z,99394.88
2022-12-06T23:36:32.268Z,99399.22
2022-12-06T23:38:59.690Z,99389.69
2022-12-06T23:41:30.041Z,99393.78
2022-12-06T23:43:58.873Z,99393.78
2022-12-06T23:46:29.255Z,99377.41
2022-12-06T23:48:56.819Z,99395.41
2022-12-06T23:51:27.083Z,99399.75
2022-12-06T23:53:59.456Z,99401.94
2022-12-06T23:56:28.985Z,99389.66
2022-12-06T23:58:56.353Z,99391.81
